sensor_id;sensor_type;location;lat;lon;timestamp;P1;durP1;ratioP1;P2;durP2;ratioP2
52868;SDS011;39100;53.480;6.158;2023-02-01T00:00:12;31.70;;;4.85;;
52868;SDS011;39100;53.480;6.158;2023-02-01T00:02:38;34.55;;;6.32;;
52868;SDS011;39100;53.480;6.158;2023-02-01T00:05:06;29.35;;;5.38;;
52868;SDS011;39100;53.480;6.158;2023-02-01T00:07:33;35.67;;;6.22;;
52868;SDS011;39100;53.480;6.158;2023-02-01T00:09:59;24.33;;;4.15;;
52868;SDS011;39100;53.480;6.158;2023-02-01T00:12:25;35.08;;;5.05;;
52868;SDS011;39100;53.480;6.158;2023-02-01T00:14:50;39.80;;;5.75;;
52868;SDS011;39100;53.480;6.158;2023-02-01T00:17:16;33.65;;;5.13;;
52868;SDS011;39100;53.480;6.158;2023-02-01T00:19:42;28.75;;;4.68;;
52868;SDS011;39100;53.480;6.158;2023-02-01T00:22:07;21.35;;;3.63;;
52868;SDS011;39100;53.480;6.158;2023-02-01T00:24:33;17.08;;;4.18;;
52868;SDS011;39100;53.480;6.158;2023-02-01T00:26:58;39.25;;;5.85;;
52868;SDS011;39100;53.480;6.158;2023-02-01T00:29:24;22.70;;;3.58;;
52868;SDS011;39100;53.480;6.158;2023-02-01T00:31:50;34.95;;;5.00;;
52868;SDS011;39100;53.480;6.158;2023-02-01T00:34:16;30.23;;;5.30;;
52868;SDS011;39100;53.480;6.158;2023-02-01T00:36:43;30.45;;;5.10;;
52868;SDS011;39100;53.480;6.158;2023-02-01T00:39:09;20.27;;;3.83;;
52868;SDS011;39100;53.480;6.158;2023-02-01T00:41:35;21.77;;;3.60;;
52868;SDS011;39100;53.480;6.158;2023-02-01T00:44:01;28.90;;;4.70;;
52868;SDS011;39100;53.480;6.158;2023-02-01T00:46:27;25.05;;;4.28;;
52868;SDS011;39100;53.480;6.158;2023-02-01T00:48:53;26.05;;;4.05;;
52868;SDS011;39100;53.480;6.158;2023-02-01T00:51:19;30.50;;;4.75;;
52868;SDS011;39100;53.480;6.158;2023-02-01T00:53:47;22.63;;;4.90;;
52868;SDS011;39100;53.480;6.158;2023-02-01T00:56:13;20.20;;;4.13;;
52868;SDS011;39100;53.480;6.158;2023-02-01T00:58:38;26.60;;;4.85;;
52868;SDS011;39100;53.480;6.158;2023-02-01T01:03:32;39.10;;;6.25;;
52868;SDS011;39100;53.480;6.158;2023-02-01T01:06:00;37.00;;;7.63;;
52868;SDS011;39100;53.480;6.158;2023-02-01T01:08:27;29.85;;;4.38;;
52868;SDS011;39100;53.480;6.158;2023-02-01T01:10:54;34.72;;;6.03;;
52868;SDS011;39100;53.480;6.158;2023-02-01T01:13:19;30.27;;;5.15;;
52868;SDS011;39100;53.480;6.158;2023-02-01T01:15:45;36.67;;;6.45;;
52868;SDS011;39100;53.480;6.158;2023-02-01T01:18:11;30.88;;;5.93;;
52868;SDS011;39100;53.480;6.158;2023-02-01T01:20:38;34.35;;;6.53;;
52868;SDS011;39100;53.480;6.158;2023-02-01T01:23:05;30.70;;;5.70;;
52868;SDS011;39100;53.480;6.158;2023-02-01T01:25:32;39.78;;;7.05;;
52868;SDS011;39100;53.480;6.158;2023-02-01T01:28:01;31.38;;;4.82;;
52868;SDS011;39100;53.480;6.158;2023-02-01T01:30:27;33.88;;;5.53;;
52868;SDS011;39100;53.480;6.158;2023-02-01T01:32:52;24.25;;;4.47;;
52868;SDS011;39100;53.480;6.158;2023-02-01T01:35:18;22.92;;;3.85;;
52868;SDS011;39100;53.480;6.158;2023-02-01T01:37:43;22.92;;;3.97;;
52868;SDS011;39100;53.480;6.158;2023-02-01T01:40:09;28.83;;;5.43;;
52868;SDS011;39100;53.480;6.158;2023-02-01T01:42:42;26.30;;;4.63;;
52868;SDS011;39100;53.480;6.158;2023-02-01T01:47:58;36.95;;;5.40;;
52868;SDS011;39100;53.480;6.158;2023-02-01T01:50:31;20.70;;;4.10;;
52868;SDS011;39100;53.480;6.158;2023-02-01T01:53:04;31.95;;;6.15;;
52868;SDS011;39100;53.480;6.158;2023-02-01T01:55:34;36.70;;;4.93;;
52868;SDS011;39100;53.480;6.158;2023-02-01T01:58:03;27.85;;;4.40;;
52868;SDS011;39100;53.480;6.158;2023-02-01T02:00:32;29.27;;;3.72;;
52868;SDS011;39100;53.480;6.158;2023-02-01T02:03:00;29.80;;;5.40;;
52868;SDS011;39100;53.480;6.158;2023-02-01T02:05:33;16.33;;;3.47;;
52868;SDS011;39100;53.480;6.158;2023-02-01T02:07:59;14.77;;;3.17;;
52868;SDS011;39100;53.480;6.158;2023-02-01T02:10:26;23.25;;;3.47;;
52868;SDS011;39100;53.480;6.158;2023-02-01T02:13:12;28.65;;;4.53;;
52868;SDS011;39100;53.480;6.158;2023-02-01T02:15:41;22.58;;;3.85;;
52868;SDS011;39100;53.480;6.158;2023-02-01T02:18:19;33.85;;;6.30;;
52868;SDS011;39100;53.480;6.158;2023-02-01T02:21:01;35.50;;;6.15;;
52868;SDS011;39100;53.480;6.158;2023-02-01T02:34:37;23.88;;;3.90;;
52868;SDS011;39100;53.480;6.158;2023-02-01T02:37:28;16.25;;;2.53;;
52868;SDS011;39100;53.480;6.158;2023-02-01T02:48:29;22.70;;;3.08;;
52868;SDS011;39100;53.480;6.158;2023-02-01T02:51:09;19.40;;;3.58;;
52868;SDS011;39100;53.480;6.158;2023-02-01T02:56:56;20.05;;;4.20;;
52868;SDS011;39100;53.480;6.158;2023-02-01T02:59:43;15.60;;;2.70;;
52868;SDS011;39100;53.480;6.158;2023-02-01T03:02:29;23.50;;;4.45;;
52868;SDS011;39100;53.480;6.158;2023-02-01T03:05:15;19.02;;;3.97;;
52868;SDS011;39100;53.480;6.158;2023-02-01T03:13:14;22.00;;;4.53;;
52868;SDS011;39100;53.480;6.158;2023-02-01T03:16:06;29.42;;;6.05;;
52868;SDS011;39100;53.480;6.158;2023-02-01T03:18:48;23.25;;;3.92;;
52868;SDS011;39100;53.480;6.158;2023-02-01T03:21:30;26.75;;;5.20;;
52868;SDS011;39100;53.480;6.158;2023-02-01T03:24:07;30.05;;;7.03;;
52868;SDS011;39100;53.480;6.158;2023-02-01T03:26:43;25.00;;;5.03;;
52868;SDS011;39100;53.480;6.158;2023-02-01T03:29:17;14.45;;;2.40;;
52868;SDS011;39100;53.480;6.158;2023-02-01T03:31:47;10.27;;;1.70;;
52868;SDS011;39100;53.480;6.158;2023-02-01T03:34:13;13.18;;;2.70;;
52868;SDS011;39100;53.480;6.158;2023-02-01T03:39:26;19.60;;;3.00;;
52868;SDS011;39100;53.480;6.158;2023-02-01T03:41:55;30.20;;;4.47;;
52868;SDS011;39100;53.480;6.158;2023-02-01T03:44:47;17.67;;;3.05;;
52868;SDS011;39100;53.480;6.158;2023-02-01T03:47:25;13.25;;;2.25;;
52868;SDS011;39100;53.480;6.158;2023-02-01T03:50:01;15.25;;;3.47;;
52868;SDS011;39100;53.480;6.158;2023-02-01T03:52:36;25.63;;;4.15;;
52868;SDS011;39100;53.480;6.158;2023-02-01T03:55:13;22.70;;;3.88;;
52868;SDS011;39100;53.480;6.158;2023-02-01T03:57:43;23.70;;;5.28;;
52868;SDS011;39100;53.480;6.158;2023-02-01T04:00:16;18.58;;;3.67;;
52868;SDS011;39100;53.480;6.158;2023-02-01T04:02:44;24.75;;;4.72;;
52868;SDS011;39100;53.480;6.158;2023-02-01T04:05:10;22.83;;;3.78;;
52868;SDS011;39100;53.480;6.158;2023-02-01T04:07:36;15.38;;;2.28;;
52868;SDS011;39100;53.480;6.158;2023-02-01T04:10:02;16.77;;;3.75;;
52868;SDS011;39100;53.480;6.158;2023-02-01T04:12:28;20.83;;;3.47;;
52868;SDS011;39100;53.480;6.158;2023-02-01T04:14:54;22.15;;;3.80;;
52868;SDS011;39100;53.480;6.158;2023-02-01T04:17:19;18.02;;;3.00;;
52868;SDS011;39100;53.480;6.158;2023-02-01T04:19:45;12.95;;;2.75;;
52868;SDS011;39100;53.480;6.158;2023-02-01T04:22:10;16.42;;;3.38;;
52868;SDS011;39100;53.480;6.158;2023-02-01T04:24:37;16.13;;;3.60;;
52868;SDS011;39100;53.480;6.158;2023-02-01T04:27:03;22.23;;;3.55;;
52868;SDS011;39100;53.480;6.158;2023-02-01T04:29:28;23.42;;;3.72;;
52868;SDS011;39100;53.480;6.158;2023-02-01T04:31:54;21.77;;;3.60;;
52868;SDS011;39100;53.480;6.158;2023-02-01T04:34:20;29.83;;;3.97;;
52868;SDS011;39100;53.480;6.158;2023-02-01T04:36:47;27.88;;;4.40;;
52868;SDS011;39100;53.480;6.158;2023-02-01T04:39:13;19.10;;;2.75;;
52868;SDS011;39100;53.480;6.158;2023-02-01T04:41:39;19.30;;;3.47;;
52868;SDS011;39100;53.480;6.158;2023-02-01T04:44:04;20.13;;;4.32;;
52868;SDS011;39100;53.480;6.158;2023-02-01T04:46:30;18.60;;;2.97;;
52868;SDS011;39100;53.480;6.158;2023-02-01T04:48:56;17.13;;;2.38;;
52868;SDS011;39100;53.480;6.158;2023-02-01T04:51:21;24.13;;;3.75;;
52868;SDS011;39100;53.480;6.158;2023-02-01T04:53:47;19.60;;;2.78;;
52868;SDS011;39100;53.480;6.158;2023-02-01T04:56:13;18.08;;;3.67;;
52868;SDS011;39100;53.480;6.158;2023-02-01T04:58:38;20.38;;;3.05;;
52868;SDS011;39100;53.480;6.158;2023-02-01T05:01:05;17.35;;;3.75;;
52868;SDS011;39100;53.480;6.158;2023-02-01T05:03:31;17.90;;;3.75;;
52868;SDS011;39100;53.480;6.158;2023-02-01T05:05:58;19.58;;;3.20;;
52868;SDS011;39100;53.480;6.158;2023-02-01T05:08:24;9.88;;;2.70;;
52868;SDS011;39100;53.480;6.158;2023-02-01T05:10:50;25.13;;;5.80;;
52868;SDS011;39100;53.480;6.158;2023-02-01T05:13:16;14.95;;;2.50;;
52868;SDS011;39100;53.480;6.158;2023-02-01T05:16:00;18.42;;;3.17;;
52868;SDS011;39100;53.480;6.158;2023-02-01T05:18:26;23.88;;;3.13;;
52868;SDS011;39100;53.480;6.158;2023-02-01T05:20:51;30.80;;;5.88;;
52868;SDS011;39100;53.480;6.158;2023-02-01T05:23:17;15.35;;;3.10;;
52868;SDS011;39100;53.480;6.158;2023-02-01T05:25:42;12.52;;;3.63;;
52868;SDS011;39100;53.480;6.158;2023-02-01T05:28:08;24.77;;;4.18;;
52868;SDS011;39100;53.480;6.158;2023-02-01T05:30:34;18.88;;;3.85;;
52868;SDS011;39100;53.480;6.158;2023-02-01T05:33:02;19.13;;;4.47;;
52868;SDS011;39100;53.480;6.158;2023-02-01T05:35:28;16.17;;;4.85;;
52868;SDS011;39100;53.480;6.158;2023-02-01T05:37:54;25.70;;;3.55;;
52868;SDS011;39100;53.480;6.158;2023-02-01T05:40:19;20.00;;;2.65;;
52868;SDS011;39100;53.480;6.158;2023-02-01T05:42:45;19.70;;;4.95;;
52868;SDS011;39100;53.480;6.158;2023-02-01T05:45:11;20.70;;;4.05;;
52868;SDS011;39100;53.480;6.158;2023-02-01T05:47:36;26.73;;;4.38;;
52868;SDS011;39100;53.480;6.158;2023-02-01T05:50:02;13.13;;;2.03;;
52868;SDS011;39100;53.480;6.158;2023-02-01T05:52:29;19.95;;;3.78;;
52868;SDS011;39100;53.480;6.158;2023-02-01T05:54:55;25.75;;;3.22;;
52868;SDS011;39100;53.480;6.158;2023-02-01T05:57:20;18.02;;;3.35;;
52868;SDS011;39100;53.480;6.158;2023-02-01T05:59:46;26.27;;;3.35;;
52868;SDS011;39100;53.480;6.158;2023-02-01T06:02:13;19.88;;;2.75;;
52868;SDS011;39100;53.480;6.158;2023-02-01T06:04:39;14.18;;;2.88;;
52868;SDS011;39100;53.480;6.158;2023-02-01T06:07:06;17.75;;;3.65;;
52868;SDS011;39100;53.480;6.158;2023-02-01T06:09:32;15.23;;;2.50;;
52868;SDS011;39100;53.480;6.158;2023-02-01T06:11:58;15.63;;;2.90;;
52868;SDS011;39100;53.480;6.158;2023-02-01T06:14:26;20.33;;;2.92;;
52868;SDS011;39100;53.480;6.158;2023-02-01T06:16:52;17.30;;;3.10;;
52868;SDS011;39100;53.480;6.158;2023-02-01T06:19:19;10.25;;;1.67;;
52868;SDS011;39100;53.480;6.158;2023-02-01T06:21:44;6.07;;;2.03;;
52868;SDS011;39100;53.480;6.158;2023-02-01T06:24:10;11.18;;;1.45;;
52868;SDS011;39100;53.480;6.158;2023-02-01T06:26:36;10.10;;;1.73;;
52868;SDS011;39100;53.480;6.158;2023-02-01T06:29:02;19.00;;;2.97;;
52868;SDS011;39100;53.480;6.158;2023-02-01T06:31:27;14.60;;;1.92;;
52868;SDS011;39100;53.480;6.158;2023-02-01T06:33:53;16.30;;;2.58;;
52868;SDS011;39100;53.480;6.158;2023-02-01T06:36:19;10.25;;;2.10;;
52868;SDS011;39100;53.480;6.158;2023-02-01T06:38:46;13.10;;;2.40;;
52868;SDS011;39100;53.480;6.158;2023-02-01T06:41:12;11.88;;;3.28;;
52868;SDS011;39100;53.480;6.158;2023-02-01T06:43:38;13.02;;;2.38;;
52868;SDS011;39100;53.480;6.158;2023-02-01T06:46:05;12.05;;;1.48;;
52868;SDS011;39100;53.480;6.158;2023-02-01T06:48:32;10.25;;;2.15;;
52868;SDS011;39100;53.480;6.158;2023-02-01T06:50:58;8.85;;;1.75;;
52868;SDS011;39100;53.480;6.158;2023-02-01T06:53:24;12.38;;;3.15;;
52868;SDS011;39100;53.480;6.158;2023-02-01T06:58:22;11.23;;;2.72;;
52868;SDS011;39100;53.480;6.158;2023-02-01T07:00:48;8.73;;;2.15;;
52868;SDS011;39100;53.480;6.158;2023-02-01T07:03:14;13.27;;;2.33;;
52868;SDS011;39100;53.480;6.158;2023-02-01T07:05:39;14.73;;;3.22;;
52868;SDS011;39100;53.480;6.158;2023-02-01T07:08:05;16.80;;;3.30;;
52868;SDS011;39100;53.480;6.158;2023-02-01T07:10:30;15.23;;;2.42;;
52868;SDS011;39100;53.480;6.158;2023-02-01T07:12:56;13.65;;;2.30;;
52868;SDS011;39100;53.480;6.158;2023-02-01T07:15:22;12.95;;;2.30;;
52868;SDS011;39100;53.480;6.158;2023-02-01T07:17:48;18.98;;;2.42;;
52868;SDS011;39100;53.480;6.158;2023-02-01T07:20:14;12.30;;;3.10;;
52868;SDS011;39100;53.480;6.158;2023-02-01T07:22:40;15.10;;;2.28;;
52868;SDS011;39100;53.480;6.158;2023-02-01T07:25:06;15.02;;;2.75;;
52868;SDS011;39100;53.480;6.158;2023-02-01T07:27:35;15.43;;;3.80;;
52868;SDS011;39100;53.480;6.158;2023-02-01T07:30:03;15.85;;;3.00;;
52868;SDS011;39100;53.480;6.158;2023-02-01T07:32:30;17.75;;;2.78;;
52868;SDS011;39100;53.480;6.158;2023-02-01T07:34:56;11.98;;;2.63;;
52868;SDS011;39100;53.480;6.158;2023-02-01T07:37:23;11.48;;;2.92;;
52868;SDS011;39100;53.480;6.158;2023-02-01T07:39:49;27.05;;;4.57;;
52868;SDS011;39100;53.480;6.158;2023-02-01T07:42:16;16.00;;;3.78;;
52868;SDS011;39100;53.480;6.158;2023-02-01T07:44:41;9.00;;;1.85;;
52868;SDS011;39100;53.480;6.158;2023-02-01T07:47:07;15.68;;;2.42;;
52868;SDS011;39100;53.480;6.158;2023-02-01T07:49:32;10.90;;;2.30;;
52868;SDS011;39100;53.480;6.158;2023-02-01T07:51:58;17.23;;;3.42;;
52868;SDS011;39100;53.480;6.158;2023-02-01T07:54:23;14.70;;;2.22;;
52868;SDS011;39100;53.480;6.158;2023-02-01T07:56:49;18.27;;;2.85;;
52868;SDS011;39100;53.480;6.158;2023-02-01T07:59:15;25.27;;;5.50;;
52868;SDS011;39100;53.480;6.158;2023-02-01T08:01:41;17.63;;;2.60;;
52868;SDS011;39100;53.480;6.158;2023-02-01T08:04:07;15.55;;;2.47;;
52868;SDS011;39100;53.480;6.158;2023-02-01T08:06:35;19.48;;;4.00;;
52868;SDS011;39100;53.480;6.158;2023-02-01T08:09:01;23.33;;;4.00;;
52868;SDS011;39100;53.480;6.158;2023-02-01T08:11:27;13.43;;;2.65;;
52868;SDS011;39100;53.480;6.158;2023-02-01T08:13:53;12.55;;;2.90;;
52868;SDS011;39100;53.480;6.158;2023-02-01T08:16:19;25.92;;;3.63;;
52868;SDS011;39100;53.480;6.158;2023-02-01T08:18:45;34.33;;;4.60;;
52868;SDS011;39100;53.480;6.158;2023-02-01T08:21:12;18.27;;;3.85;;
52868;SDS011;39100;53.480;6.158;2023-02-01T08:23:40;19.80;;;2.92;;
52868;SDS011;39100;53.480;6.158;2023-02-01T08:26:07;24.77;;;4.35;;
52868;SDS011;39100;53.480;6.158;2023-02-01T08:28:34;16.67;;;4.53;;
52868;SDS011;39100;53.480;6.158;2023-02-01T08:31:07;15.95;;;2.78;;
52868;SDS011;39100;53.480;6.158;2023-02-01T08:33:34;22.85;;;5.15;;
52868;SDS011;39100;53.480;6.158;2023-02-01T08:36:02;27.17;;;5.32;;
52868;SDS011;39100;53.480;6.158;2023-02-01T08:38:29;18.52;;;3.55;;
52868;SDS011;39100;53.480;6.158;2023-02-01T08:40:55;33.80;;;5.00;;
52868;SDS011;39100;53.480;6.158;2023-02-01T08:43:21;33.92;;;5.28;;
52868;SDS011;39100;53.480;6.158;2023-02-01T08:45:46;33.25;;;5.85;;
52868;SDS011;39100;53.480;6.158;2023-02-01T08:48:12;30.33;;;5.20;;
52868;SDS011;39100;53.480;6.158;2023-02-01T08:50:37;32.17;;;5.47;;
52868;SDS011;39100;53.480;6.158;2023-02-01T08:53:03;21.10;;;2.78;;
52868;SDS011;39100;53.480;6.158;2023-02-01T08:55:29;21.70;;;2.95;;
52868;SDS011;39100;53.480;6.158;2023-02-01T08:57:55;9.13;;;2.50;;
52868;SDS011;39100;53.480;6.158;2023-02-01T09:00:21;13.00;;;2.40;;
52868;SDS011;39100;53.480;6.158;2023-02-01T09:02:46;21.70;;;3.03;;
52868;SDS011;39100;53.480;6.158;2023-02-01T09:05:12;18.83;;;2.95;;
52868;SDS011;39100;53.480;6.158;2023-02-01T09:07:39;20.30;;;3.92;;
52868;SDS011;39100;53.480;6.158;2023-02-01T09:10:05;19.17;;;2.53;;
52868;SDS011;39100;53.480;6.158;2023-02-01T09:12:31;19.33;;;3.50;;
52868;SDS011;39100;53.480;6.158;2023-02-01T09:14:58;17.20;;;3.00;;
52868;SDS011;39100;53.480;6.158;2023-02-01T09:17:25;26.30;;;3.40;;
52868;SDS011;39100;53.480;6.158;2023-02-01T09:19:51;16.65;;;3.38;;
52868;SDS011;39100;53.480;6.158;2023-02-01T09:22:16;17.02;;;3.35;;
52868;SDS011;39100;53.480;6.158;2023-02-01T09:24:42;17.17;;;2.97;;
52868;SDS011;39100;53.480;6.158;2023-02-01T09:27:08;22.88;;;3.42;;
52868;SDS011;39100;53.480;6.158;2023-02-01T09:29:33;21.98;;;3.70;;
52868;SDS011;39100;53.480;6.158;2023-02-01T09:31:59;22.02;;;2.22;;
52868;SDS011;39100;53.480;6.158;2023-02-01T09:34:25;17.55;;;2.80;;
52868;SDS011;39100;53.480;6.158;2023-02-01T09:36:50;18.52;;;4.00;;
52868;SDS011;39100;53.480;6.158;2023-02-01T09:39:16;28.17;;;4.47;;
52868;SDS011;39100;53.480;6.158;2023-02-01T09:44:48;19.35;;;3.47;;
52868;SDS011;39100;53.480;6.158;2023-02-01T09:47:15;22.55;;;4.07;;
52868;SDS011;39100;53.480;6.158;2023-02-01T09:52:28;20.52;;;4.15;;
52868;SDS011;39100;53.480;6.158;2023-02-01T09:55:04;20.90;;;3.28;;
52868;SDS011;39100;53.480;6.158;2023-02-01T09:57:40;21.98;;;3.10;;
52868;SDS011;39100;53.480;6.158;2023-02-01T10:00:26;20.35;;;3.42;;
52868;SDS011;39100;53.480;6.158;2023-02-01T10:02:55;19.60;;;3.65;;
52868;SDS011;39100;53.480;6.158;2023-02-01T10:05:44;19.20;;;3.20;;
52868;SDS011;39100;53.480;6.158;2023-02-01T10:08:52;16.23;;;2.88;;
52868;SDS011;39100;53.480;6.158;2023-02-01T10:17:02;21.85;;;3.92;;
52868;SDS011;39100;53.480;6.158;2023-02-01T10:22:17;27.92;;;4.70;;
52868;SDS011;39100;53.480;6.158;2023-02-01T10:27:48;23.42;;;5.90;;
52868;SDS011;39100;53.480;6.158;2023-02-01T10:30:22;41.63;;;6.05;;
52868;SDS011;39100;53.480;6.158;2023-02-01T10:32:55;35.15;;;6.25;;
52868;SDS011;39100;53.480;6.158;2023-02-01T10:35:29;27.17;;;3.67;;
52868;SDS011;39100;53.480;6.158;2023-02-01T10:37:59;28.55;;;5.32;;
52868;SDS011;39100;53.480;6.158;2023-02-01T10:40:27;29.35;;;3.83;;
52868;SDS011;39100;53.480;6.158;2023-02-01T10:42:54;19.27;;;3.25;;
52868;SDS011;39100;53.480;6.158;2023-02-01T10:45:25;22.17;;;3.58;;
52868;SDS011;39100;53.480;6.158;2023-02-01T10:47:54;16.27;;;2.70;;
52868;SDS011;39100;53.480;6.158;2023-02-01T10:53:18;6.60;;;0.70;;
52868;SDS011;39100;53.480;6.158;2023-02-01T10:55:51;6.78;;;0.45;;
52868;SDS011;39100;53.480;6.158;2023-02-01T10:58:25;9.45;;;0.85;;
52868;SDS011;39100;53.480;6.158;2023-02-01T11:01:00;3.63;;;0.38;;
52868;SDS011;39100;53.480;6.158;2023-02-01T11:03:32;2.45;;;0.32;;
52868;SDS011;39100;53.480;6.158;2023-02-01T11:06:09;2.05;;;0.40;;
52868;SDS011;39100;53.480;6.158;2023-02-01T11:08:45;3.40;;;0.35;;
52868;SDS011;39100;53.480;6.158;2023-02-01T11:11:13;1.85;;;0.28;;
52868;SDS011;39100;53.480;6.158;2023-02-01T11:13:39;3.83;;;0.30;;
52868;SDS011;39100;53.480;6.158;2023-02-01T11:16:06;1.50;;;0.20;;
52868;SDS011;39100;53.480;6.158;2023-02-01T11:18:35;4.63;;;1.17;;
52868;SDS011;39100;53.480;6.158;2023-02-01T11:21:02;1.10;;;0.35;;
52868;SDS011;39100;53.480;6.158;2023-02-01T11:23:32;3.50;;;0.50;;
52868;SDS011;39100;53.480;6.158;2023-02-01T11:26:09;4.75;;;1.73;;
52868;SDS011;39100;53.480;6.158;2023-02-01T11:28:38;6.40;;;1.10;;
52868;SDS011;39100;53.480;6.158;2023-02-01T11:31:08;1.40;;;0.90;;
52868;SDS011;39100;53.480;6.158;2023-02-01T11:33:36;1.73;;;0.50;;
52868;SDS011;39100;53.480;6.158;2023-02-01T11:36:09;3.47;;;0.75;;
52868;SDS011;39100;53.480;6.158;2023-02-01T11:38:40;4.75;;;0.80;;
52868;SDS011;39100;53.480;6.158;2023-02-01T11:43:53;3.70;;;0.40;;
52868;SDS011;39100;53.480;6.158;2023-02-01T11:46:22;5.07;;;0.95;;
52868;SDS011;39100;53.480;6.158;2023-02-01T11:48:57;9.02;;;1.50;;
52868;SDS011;39100;53.480;6.158;2023-02-01T11:52:25;6.00;;;1.52;;
52868;SDS011;39100;53.480;6.158;2023-02-01T12:00:50;9.68;;;1.05;;
52868;SDS011;39100;53.480;6.158;2023-02-01T12:06:08;11.25;;;1.63;;
52868;SDS011;39100;53.480;6.158;2023-02-01T12:09:06;10.93;;;1.40;;
52868;SDS011;39100;53.480;6.158;2023-02-01T12:12:08;7.65;;;1.35;;
52868;SDS011;39100;53.480;6.158;2023-02-01T12:22:53;14.88;;;2.63;;
52868;SDS011;39100;53.480;6.158;2023-02-01T12:25:52;11.40;;;1.73;;
52868;SDS011;39100;53.480;6.158;2023-02-01T12:31:31;12.07;;;1.95;;
52868;SDS011;39100;53.480;6.158;2023-02-01T12:45:09;10.05;;;1.80;;
52868;SDS011;39100;53.480;6.158;2023-02-01T12:47:44;14.50;;;3.28;;
52868;SDS011;39100;53.480;6.158;2023-02-01T12:53:09;10.73;;;1.50;;
52868;SDS011;39100;53.480;6.158;2023-02-01T12:55:52;19.83;;;1.80;;
52868;SDS011;39100;53.480;6.158;2023-02-01T12:58:21;14.57;;;2.55;;
52868;SDS011;39100;53.480;6.158;2023-02-01T13:03:27;10.00;;;2.67;;
52868;SDS011;39100;53.480;6.158;2023-02-01T13:06:02;9.63;;;2.47;;
52868;SDS011;39100;53.480;6.158;2023-02-01T13:11:38;16.67;;;3.08;;
52868;SDS011;39100;53.480;6.158;2023-02-01T13:14:19;11.32;;;1.90;;
52868;SDS011;39100;53.480;6.158;2023-02-01T13:16:50;13.52;;;2.85;;
52868;SDS011;39100;53.480;6.158;2023-02-01T13:19:22;10.43;;;2.00;;
52868;SDS011;39100;53.480;6.158;2023-02-01T13:24:24;8.88;;;1.80;;
52868;SDS011;39100;53.480;6.158;2023-02-01T13:26:55;13.02;;;2.30;;
52868;SDS011;39100;53.480;6.158;2023-02-01T13:29:21;11.25;;;1.88;;
52868;SDS011;39100;53.480;6.158;2023-02-01T13:34:35;10.18;;;1.98;;
52868;SDS011;39100;53.480;6.158;2023-02-01T13:37:37;16.67;;;2.35;;
52868;SDS011;39100;53.480;6.158;2023-02-01T13:40:08;12.02;;;1.75;;
52868;SDS011;39100;53.480;6.158;2023-02-01T13:42:51;11.43;;;2.33;;
52868;SDS011;39100;53.480;6.158;2023-02-01T13:45:24;17.83;;;2.45;;
52868;SDS011;39100;53.480;6.158;2023-02-01T13:47:53;9.45;;;2.38;;
52868;SDS011;39100;53.480;6.158;2023-02-01T13:50:32;10.35;;;2.30;;
52868;SDS011;39100;53.480;6.158;2023-02-01T13:53:13;12.80;;;2.60;;
52868;SDS011;39100;53.480;6.158;2023-02-01T13:55:44;9.63;;;1.50;;
52868;SDS011;39100;53.480;6.158;2023-02-01T13:58:22;12.10;;;2.50;;
52868;SDS011;39100;53.480;6.158;2023-02-01T14:03:56;15.50;;;2.15;;
52868;SDS011;39100;53.480;6.158;2023-02-01T14:11:40;9.70;;;2.17;;
52868;SDS011;39100;53.480;6.158;2023-02-01T14:16:43;10.43;;;1.88;;
52868;SDS011;39100;53.480;6.158;2023-02-01T14:19:33;9.07;;;1.90;;
52868;SDS011;39100;53.480;6.158;2023-02-01T14:22:00;10.13;;;2.27;;
52868;SDS011;39100;53.480;6.158;2023-02-01T14:24:44;11.52;;;2.22;;
52868;SDS011;39100;53.480;6.158;2023-02-01T14:27:18;4.43;;;0.93;;
52868;SDS011;39100;53.480;6.158;2023-02-01T14:29:50;9.98;;;1.73;;
52868;SDS011;39100;53.480;6.158;2023-02-01T14:32:33;12.73;;;2.33;;
52868;SDS011;39100;53.480;6.158;2023-02-01T14:35:05;13.40;;;2.72;;
52868;SDS011;39100;53.480;6.158;2023-02-01T14:37:36;10.52;;;1.88;;
52868;SDS011;39100;53.480;6.158;2023-02-01T14:47:51;21.23;;;3.33;;
52868;SDS011;39100;53.480;6.158;2023-02-01T15:03:47;10.98;;;1.83;;
52868;SDS011;39100;53.480;6.158;2023-02-01T15:08:59;10.18;;;2.35;;
52868;SDS011;39100;53.480;6.158;2023-02-01T15:11:32;13.50;;;2.05;;
52868;SDS011;39100;53.480;6.158;2023-02-01T15:17:39;13.35;;;2.45;;
52868;SDS011;39100;53.480;6.158;2023-02-01T15:20:16;13.07;;;2.30;;
52868;SDS011;39100;53.480;6.158;2023-02-01T15:22:54;6.63;;;1.75;;
52868;SDS011;39100;53.480;6.158;2023-02-01T15:25:25;7.97;;;2.15;;
52868;SDS011;39100;53.480;6.158;2023-02-01T15:27:52;8.43;;;2.28;;
52868;SDS011;39100;53.480;6.158;2023-02-01T15:30:19;13.93;;;3.08;;
52868;SDS011;39100;53.480;6.158;2023-02-01T15:32:47;11.82;;;2.20;;
52868;SDS011;39100;53.480;6.158;2023-02-01T15:35:32;11.18;;;1.30;;
52868;SDS011;39100;53.480;6.158;2023-02-01T15:41:06;14.82;;;3.47;;
52868;SDS011;39100;53.480;6.158;2023-02-01T15:44:02;15.65;;;2.20;;
52868;SDS011;39100;53.480;6.158;2023-02-01T15:46:35;11.75;;;2.05;;
52868;SDS011;39100;53.480;6.158;2023-02-01T15:49:03;12.20;;;1.92;;
52868;SDS011;39100;53.480;6.158;2023-02-01T15:51:31;14.15;;;2.40;;
52868;SDS011;39100;53.480;6.158;2023-02-01T15:56:39;12.20;;;2.10;;
52868;SDS011;39100;53.480;6.158;2023-02-01T15:59:12;17.63;;;2.17;;
52868;SDS011;39100;53.480;6.158;2023-02-01T16:01:43;9.30;;;2.20;;
52868;SDS011;39100;53.480;6.158;2023-02-01T16:06:48;6.93;;;1.48;;
52868;SDS011;39100;53.480;6.158;2023-02-01T16:09:35;14.00;;;2.28;;
52868;SDS011;39100;53.480;6.158;2023-02-01T16:12:03;8.73;;;1.85;;
52868;SDS011;39100;53.480;6.158;2023-02-01T16:17:32;12.98;;;1.80;;
52868;SDS011;39100;53.480;6.158;2023-02-01T16:19:57;13.10;;;2.45;;
52868;SDS011;39100;53.480;6.158;2023-02-01T16:22:23;10.30;;;2.10;;
52868;SDS011;39100;53.480;6.158;2023-02-01T16:24:49;11.50;;;1.98;;
52868;SDS011;39100;53.480;6.158;2023-02-01T16:27:15;12.00;;;2.53;;
52868;SDS011;39100;53.480;6.158;2023-02-01T16:29:43;9.50;;;1.75;;
52868;SDS011;39100;53.480;6.158;2023-02-01T16:32:14;9.57;;;2.03;;
52868;SDS011;39100;53.480;6.158;2023-02-01T16:34:43;9.85;;;1.73;;
52868;SDS011;39100;53.480;6.158;2023-02-01T16:37:11;10.80;;;2.08;;
52868;SDS011;39100;53.480;6.158;2023-02-01T16:39:38;11.20;;;2.28;;
52868;SDS011;39100;53.480;6.158;2023-02-01T16:42:10;13.75;;;2.53;;
52868;SDS011;39100;53.480;6.158;2023-02-01T16:44:37;11.73;;;2.47;;
52868;SDS011;39100;53.480;6.158;2023-02-01T16:47:03;10.15;;;1.25;;
52868;SDS011;39100;53.480;6.158;2023-02-01T16:49:37;13.65;;;2.03;;
52868;SDS011;39100;53.480;6.158;2023-02-01T16:52:08;11.65;;;1.52;;
52868;SDS011;39100;53.480;6.158;2023-02-01T16:54:41;8.52;;;1.38;;
52868;SDS011;39100;53.480;6.158;2023-02-01T16:57:10;10.15;;;1.73;;
52868;SDS011;39100;53.480;6.158;2023-02-01T16:59:38;11.25;;;2.03;;
52868;SDS011;39100;53.480;6.158;2023-02-01T17:02:04;10.30;;;1.58;;
52868;SDS011;39100;53.480;6.158;2023-02-01T17:04:29;7.60;;;1.30;;
52868;SDS011;39100;53.480;6.158;2023-02-01T17:06:55;14.73;;;2.05;;
52868;SDS011;39100;53.480;6.158;2023-02-01T17:09:20;10.63;;;1.40;;
52868;SDS011;39100;53.480;6.158;2023-02-01T17:11:47;10.05;;;1.85;;
52868;SDS011;39100;53.480;6.158;2023-02-01T17:14:16;13.00;;;1.50;;
52868;SDS011;39100;53.480;6.158;2023-02-01T17:16:44;16.02;;;3.08;;
52868;SDS011;39100;53.480;6.158;2023-02-01T17:19:16;5.38;;;1.17;;
52868;SDS011;39100;53.480;6.158;2023-02-01T17:21:44;8.43;;;1.52;;
52868;SDS011;39100;53.480;6.158;2023-02-01T17:24:13;8.50;;;1.92;;
52868;SDS011;39100;53.480;6.158;2023-02-01T17:26:40;11.43;;;1.83;;